sensor_id;sensor_type;location;lat;lon;timestamp;temperature;humidity
6865;DHT22;3471;49.678;8.388;2023-02-15T00:01:44;4.10;99.90
6865;DHT22;3471;49.678;8.388;2023-02-15T00:04:12;4.10;99.90
6865;DHT22;3471;49.678;8.388;2023-02-15T00:06:38;4.10;99.90
6865;DHT22;3471;49.678;8.388;2023-02-15T00:09:04;4.10;99.90
6865;DHT22;3471;49.678;8.388;2023-02-15T00:11:29;4.10;99.90
6865;DHT22;3471;49.678;8.388;2023-02-15T00:14:19;4.10;99.90
6865;DHT22;3471;49.678;8.388;2023-02-15T00:16:45;4.00;99.90
6865;DHT22;3471;49.678;8.388;2023-02-15T00:19:12;4.10;99.90
6865;DHT22;3471;49.678;8.388;2023-02-15T00:21:39;4.10;99.90
6865;DHT22;3471;49.678;8.388;2023-02-15T00:24:07;4.10;99.90
6865;DHT22;3471;49.678;8.388;2023-02-15T00:26:33;4.10;99.90
6865;DHT22;3471;49.678;8.388;2023-02-15T00:29:00;4.20;99.90
6865;DHT22;3471;49.678;8.388;2023-02-15T00:31:29;4.10;99.90
6865;DHT22;3471;49.678;8.388;2023-02-15T00:34:00;4.10;99.90
6865;DHT22;3471;49.678;8.388;2023-02-15T00:36:26;4.10;99.90
6865;DHT22;3471;49.678;8.388;2023-02-15T00:38:51;4.10;99.90
6865;DHT22;3471;49.678;8.388;2023-02-15T00:41:17;4.10;99.90
6865;DHT22;3471;49.678;8.388;2023-02-15T00:43:42;4.10;99.90
6865;DHT22;3471;49.678;8.388;2023-02-15T00:46:08;4.10;99.90
6865;DHT22;3471;49.678;8.388;2023-02-15T00:48:33;4.10;99.90
6865;DHT22;3471;49.678;8.388;2023-02-15T00:50:59;4.10;99.90
6865;DHT22;3471;49.678;8.388;2023-02-15T00:53:26;4.10;99.90
6865;DHT22;3471;49.678;8.388;2023-02-15T00:55:53;4.00;99.90
6865;DHT22;3471;49.678;8.388;2023-02-15T00:58:18;4.00;99.90
6865;DHT22;3471;49.678;8.388;2023-02-15T01:00:45;4.00;99.90
6865;DHT22;3471;49.678;8.388;2023-02-15T01:03:13;4.10;99.90
6865;DHT22;3471;49.678;8.388;2023-02-15T01:05:38;4.10;99.90
6865;DHT22;3471;49.678;8.388;2023-02-15T01:08:04;4.10;99.90
6865;DHT22;3471;49.678;8.388;2023-02-15T01:10:30;4.10;99.90
6865;DHT22;3471;49.678;8.388;2023-02-15T01:12:56;4.10;99.90
6865;DHT22;3471;49.678;8.388;2023-02-15T01:15:22;4.00;99.90
6865;DHT22;3471;49.678;8.388;2023-02-15T01:17:48;4.00;99.90
6865;DHT22;3471;49.678;8.388;2023-02-15T01:20:25;4.10;99.90
6865;DHT22;3471;49.678;8.388;2023-02-15T01:22:51;4.10;99.90
6865;DHT22;3471;49.678;8.388;2023-02-15T01:25:18;4.00;99.90
6865;DHT22;3471;49.678;8.388;2023-02-15T01:27:44;4.10;99.90
6865;DHT22;3471;49.678;8.388;2023-02-15T01:30:10;4.10;99.90
6865;DHT22;3471;49.678;8.388;2023-02-15T01:32:36;4.10;99.90
6865;DHT22;3471;49.678;8.388;2023-02-15T01:35:02;4.10;99.90
6865;DHT22;3471;49.678;8.388;2023-02-15T01:37:30;4.10;99.90
6865;DHT22;3471;49.678;8.388;2023-02-15T01:39:56;4.10;99.90
6865;DHT22;3471;49.678;8.388;2023-02-15T01:42:23;4.10;99.90
6865;DHT22;3471;49.678;8.388;2023-02-15T01:44:53;4.10;99.90
6865;DHT22;3471;49.678;8.388;2023-02-15T01:50:22;4.10;99.90
6865;DHT22;3471;49.678;8.388;2023-02-15T01:53:01;4.10;99.90
6865;DHT22;3471;49.678;8.388;2023-02-15T01:55:38;4.10;99.90
6865;DHT22;3471;49.678;8.388;2023-02-15T01:58:05;4.10;99.90
6865;DHT22;3471;49.678;8.388;2023-02-15T02:00:32;4.10;99.90
6865;DHT22;3471;49.678;8.388;2023-02-15T02:02:58;4.00;99.90
6865;DHT22;3471;49.678;8.388;2023-02-15T02:05:24;4.00;99.90
6865;DHT22;3471;49.678;8.388;2023-02-15T02:07:51;4.00;99.90
6865;DHT22;3471;49.678;8.388;2023-02-15T02:10:20;4.00;99.90
6865;DHT22;3471;49.678;8.388;2023-02-15T02:12:49;4.00;99.90
6865;DHT22;3471;49.678;8.388;2023-02-15T02:15:16;3.90;99.90
6865;DHT22;3471;49.678;8.388;2023-02-15T02:18:03;4.00;99.90
6865;DHT22;3471;49.678;8.388;2023-02-15T02:23:37;3.90;99.90
6865;DHT22;3471;49.678;8.388;2023-02-15T02:31:31;3.90;99.90
6865;DHT22;3471;49.678;8.388;2023-02-15T02:36:59;3.90;99.90
6865;DHT22;3471;49.678;8.388;2023-02-15T02:45:05;3.90;99.90
6865;DHT22;3471;49.678;8.388;2023-02-15T02:47:41;3.80;99.90
6865;DHT22;3471;49.678;8.388;2023-02-15T02:50:16;3.80;99.90
6865;DHT22;3471;49.678;8.388;2023-02-15T02:52:47;3.80;99.90
6865;DHT22;3471;49.678;8.388;2023-02-15T02:55:15;3.80;99.90
6865;DHT22;3471;49.678;8.388;2023-02-15T02:57:55;3.70;99.90
6865;DHT22;3471;49.678;8.388;2023-02-15T03:00:25;3.80;99.90
6865;DHT22;3471;49.678;8.388;2023-02-15T03:02:59;3.80;99.90
6865;DHT22;3471;49.678;8.388;2023-02-15T03:05:30;3.80;99.90
6865;DHT22;3471;49.678;8.388;2023-02-15T03:07:58;3.80;99.90
6865;DHT22;3471;49.678;8.388;2023-02-15T03:10:31;3.80;99.90
6865;DHT22;3471;49.678;8.388;2023-02-15T03:12:58;3.80;99.90
6865;DHT22;3471;49.678;8.388;2023-02-15T03:15:26;3.80;99.90
6865;DHT22;3471;49.678;8.388;2023-02-15T03:18:16;3.80;99.90
6865;DHT22;3471;49.678;8.388;2023-02-15T03:20:43;3.80;99.90
6865;DHT22;3471;49.678;8.388;2023-02-15T03:23:13;3.70;99.90
6865;DHT22;3471;49.678;8.388;2023-02-15T03:25:44;3.70;99.90
6865;DHT22;3471;49.678;8.388;2023-02-15T03:28:15;3.70;99.90
6865;DHT22;3471;49.678;8.388;2023-02-15T03:30:45;3.70;99.90
6865;DHT22;3471;49.678;8.388;2023-02-15T03:33:13;3.70;99.90
6865;DHT22;3471;49.678;8.388;2023-02-15T03:35:49;3.70;99.90
6865;DHT22;3471;49.678;8.388;2023-02-15T03:38:25;3.70;99.90
6865;DHT22;3471;49.678;8.388;2023-02-15T03:40:56;3.70;99.90
6865;DHT22;3471;49.678;8.388;2023-02-15T03:43:56;3.70;99.90
6865;DHT22;3471;49.678;8.388;2023-02-15T03:46:25;3.70;99.90
6865;DHT22;3471;49.678;8.388;2023-02-15T03:48:57;3.70;99.90
6865;DHT22;3471;49.678;8.388;2023-02-15T03:51:32;3.70;99.90
6865;DHT22;3471;49.678;8.388;2023-02-15T03:56:30;3.80;99.90
6865;DHT22;3471;49.678;8.388;2023-02-15T03:58:56;3.80;99.90
6865;DHT22;3471;49.678;8.388;2023-02-15T04:04:33;3.80;99.90
6865;DHT22;3471;49.678;8.388;2023-02-15T04:07:00;3.80;99.90
6865;DHT22;3471;49.678;8.388;2023-02-15T04:09:25;3.80;99.90
6865;DHT22;3471;49.678;8.388;2023-02-15T04:12:10;3.80;99.90
6865;DHT22;3471;49.678;8.388;2023-02-15T04:14:35;3.80;99.90
6865;DHT22;3471;49.678;8.388;2023-02-15T04:17:20;3.80;99.90
6865;DHT22;3471;49.678;8.388;2023-02-15T04:19:45;3.80;99.90
6865;DHT22;3471;49.678;8.388;2023-02-15T04:22:30;3.80;99.90
6865;DHT22;3471;49.678;8.388;2023-02-15T04:25:14;3.80;99.90
6865;DHT22;3471;49.678;8.388;2023-02-15T04:27:43;3.80;99.90
6865;DHT22;3471;49.678;8.388;2023-02-15T04:30:10;3.80;99.90
6865;DHT22;3471;49.678;8.388;2023-02-15T04:32:37;3.80;99.90
6865;DHT22;3471;49.678;8.388;2023-02-15T04:35:03;3.80;99.90
6865;DHT22;3471;49.678;8.388;2023-02-15T04:37:30;3.90;99.90
6865;DHT22;3471;49.678;8.388;2023-02-15T04:39:55;3.90;99.90
6865;DHT22;3471;49.678;8.388;2023-02-15T04:42:21;3.90;99.90
6865;DHT22;3471;49.678;8.388;2023-02-15T04:44:46;3.90;99.90
6865;DHT22;3471;49.678;8.388;2023-02-15T04:47:12;3.90;99.90
6865;DHT22;3471;49.678;8.388;2023-02-15T04:49:37;3.90;99.90
6865;DHT22;3471;49.678;8.388;2023-02-15T04:52:03;3.90;99.90
6865;DHT22;3471;49.678;8.388;2023-02-15T04:54:29;3.90;99.90
6865;DHT22;3471;49.678;8.388;2023-02-15T04:56:54;3.90;99.90
6865;DHT22;3471;49.678;8.388;2023-02-15T04:59:20;3.90;99.90
6865;DHT22;3471;49.678;8.388;2023-02-15T05:01:45;3.90;99.90
6865;DHT22;3471;49.678;8.388;2023-02-15T05:04:11;3.80;99.90
6865;DHT22;3471;49.678;8.388;2023-02-15T05:06:36;3.90;99.90
6865;DHT22;3471;49.678;8.388;2023-02-15T05:09:02;3.80;99.90
6865;DHT22;3471;49.678;8.388;2023-02-15T05:11:28;3.80;99.90
6865;DHT22;3471;49.678;8.388;2023-02-15T05:13:53;3.80;99.90
6865;DHT22;3471;49.678;8.388;2023-02-15T05:16:19;3.80;99.90
6865;DHT22;3471;49.678;8.388;2023-02-15T05:18:45;3.90;99.90
6865;DHT22;3471;49.678;8.388;2023-02-15T05:21:10;3.80;99.90
6865;DHT22;3471;49.678;8.388;2023-02-15T05:23:36;3.80;99.90
6865;DHT22;3471;49.678;8.388;2023-02-15T05:26:02;3.80;99.90
6865;DHT22;3471;49.678;8.388;2023-02-15T05:28:46;3.80;99.90
6865;DHT22;3471;49.678;8.388;2023-02-15T05:31:17;3.80;99.90
6865;DHT22;3471;49.678;8.388;2023-02-15T05:33:43;3.80;99.90
6865;DHT22;3471;49.678;8.388;2023-02-15T05:36:10;3.80;99.90
6865;DHT22;3471;49.678;8.388;2023-02-15T05:38:36;3.80;99.90
6865;DHT22;3471;49.678;8.388;2023-02-15T05:41:06;3.70;99.90
6865;DHT22;3471;49.678;8.388;2023-02-15T05:43:32;3.70;99.90
6865;DHT22;3471;49.678;8.388;2023-02-15T05:45:58;3.70;99.90
6865;DHT22;3471;49.678;8.388;2023-02-15T05:48:25;3.80;99.90
6865;DHT22;3471;49.678;8.388;2023-02-15T05:51:20;3.70;99.90
6865;DHT22;3471;49.678;8.388;2023-02-15T05:53:45;3.70;99.90
6865;DHT22;3471;49.678;8.388;2023-02-15T05:56:11;3.70;99.90
6865;DHT22;3471;49.678;8.388;2023-02-15T05:58:41;3.70;99.90
6865;DHT22;3471;49.678;8.388;2023-02-15T06:01:18;3.70;99.90
6865;DHT22;3471;49.678;8.388;2023-02-15T06:03:45;3.70;99.90
6865;DHT22;3471;49.678;8.388;2023-02-15T06:06:10;3.70;99.90
6865;DHT22;3471;49.678;8.388;2023-02-15T06:08:37;3.70;99.90
6865;DHT22;3471;49.678;8.388;2023-02-15T06:11:03;3.70;99.90
6865;DHT22;3471;49.678;8.388;2023-02-15T06:13:29;3.70;99.90
6865;DHT22;3471;49.678;8.388;2023-02-15T06:15:55;3.70;99.90
6865;DHT22;3471;49.678;8.388;2023-02-15T06:18:21;3.70;99.90
6865;DHT22;3471;49.678;8.388;2023-02-15T06:20:47;3.70;99.90
6865;DHT22;3471;49.678;8.388;2023-02-15T06:23:13;3.70;99.90
6865;DHT22;3471;49.678;8.388;2023-02-15T06:25:39;3.70;99.90
6865;DHT22;3471;49.678;8.388;2023-02-15T06:28:04;3.60;99.90
6865;DHT22;3471;49.678;8.388;2023-02-15T06:30:30;3.60;99.90
6865;DHT22;3471;49.678;8.388;2023-02-15T06:32:56;3.60;99.90
6865;DHT22;3471;49.678;8.388;2023-02-15T06:35:22;3.70;99.90
6865;DHT22;3471;49.678;8.388;2023-02-15T06:37:48;3.60;99.90
6865;DHT22;3471;49.678;8.388;2023-02-15T06:40:14;3.60;99.90
6865;DHT22;3471;49.678;8.388;2023-02-15T06:42:41;3.60;99.90
6865;DHT22;3471;49.678;8.388;2023-02-15T06:45:08;3.70;99.90
6865;DHT22;3471;49.678;8.388;2023-02-15T06:47:34;3.60;99.90
6865;DHT22;3471;49.678;8.388;2023-02-15T06:49:59;3.60;99.90
6865;DHT22;3471;49.678;8.388;2023-02-15T06:52:25;3.70;99.90
6865;DHT22;3471;49.678;8.388;2023-02-15T06:54:51;3.70;99.90
6865;DHT22;3471;49.678;8.388;2023-02-15T06:57:18;3.70;99.90
6865;DHT22;3471;49.678;8.388;2023-02-15T06:59:44;3.70;99.90
6865;DHT22;3471;49.678;8.388;2023-02-15T07:02:11;3.70;99.90
6865;DHT22;3471;49.678;8.388;2023-02-15T07:04:37;3.70;99.90
6865;DHT22;3471;49.678;8.388;2023-02-15T07:07:03;3.70;99.90
6865;DHT22;3471;49.678;8.388;2023-02-15T07:09:29;3.70;99.90
6865;DHT22;3471;49.678;8.388;2023-02-15T07:11:54;3.60;99.90
6865;DHT22;3471;49.678;8.388;2023-02-15T07:14:38;3.60;99.90
6865;DHT22;3471;49.678;8.388;2023-02-15T07:17:05;3.60;99.90
6865;DHT22;3471;49.678;8.388;2023-02-15T07:19:31;3.60;99.90
6865;DHT22;3471;49.678;8.388;2023-02-15T07:21:57;3.60;99.90
6865;DHT22;3471;49.678;8.388;2023-02-15T07:24:22;3.70;99.90
6865;DHT22;3471;49.678;8.388;2023-02-15T07:26:48;3.70;99.90
6865;DHT22;3471;49.678;8.388;2023-02-15T07:29:14;3.70;99.90
6865;DHT22;3471;49.678;8.388;2023-02-15T07:31:40;3.70;99.90
6865;DHT22;3471;49.678;8.388;2023-02-15T07:34:08;3.70;99.90
6865;DHT22;3471;49.678;8.388;2023-02-15T07:36:34;3.80;99.90
6865;DHT22;3471;49.678;8.388;2023-02-15T07:38:59;3.80;99.90
6865;DHT22;3471;49.678;8.388;2023-02-15T07:41:25;3.80;99.90
6865;DHT22;3471;49.678;8.388;2023-02-15T07:43:50;3.80;99.90
6865;DHT22;3471;49.678;8.388;2023-02-15T07:46:16;3.80;99.90
6865;DHT22;3471;49.678;8.388;2023-02-15T07:48:42;3.80;99.90
6865;DHT22;3471;49.678;8.388;2023-02-15T07:51:09;3.80;99.90
6865;DHT22;3471;49.678;8.388;2023-02-15T07:53:36;3.80;99.90
6865;DHT22;3471;49.678;8.388;2023-02-15T07:56:04;3.80;99.90
6865;DHT22;3471;49.678;8.388;2023-02-15T07:58:30;3.80;99.90
6865;DHT22;3471;49.678;8.388;2023-02-15T08:01:15;3.80;99.90
6865;DHT22;3471;49.678;8.388;2023-02-15T08:03:40;3.90;99.90
6865;DHT22;3471;49.678;8.388;2023-02-15T08:06:06;3.90;99.90
6865;DHT22;3471;49.678;8.388;2023-02-15T08:08:35;3.90;99.90
6865;DHT22;3471;49.678;8.388;2023-02-15T08:11:23;4.00;99.90
6865;DHT22;3471;49.678;8.388;2023-02-15T08:14:13;4.00;99.90
6865;DHT22;3471;49.678;8.388;2023-02-15T08:22:07;4.10;99.90
6865;DHT22;3471;49.678;8.388;2023-02-15T08:24:36;4.10;99.90
6865;DHT22;3471;49.678;8.388;2023-02-15T08:27:03;4.10;99.90
6865;DHT22;3471;49.678;8.388;2023-02-15T08:29:30;4.10;99.90
6865;DHT22;3471;49.678;8.388;2023-02-15T08:31:59;4.20;99.90
6865;DHT22;3471;49.678;8.388;2023-02-15T08:34:27;4.20;99.90
6865;DHT22;3471;49.678;8.388;2023-02-15T08:36:53;4.20;99.90
6865;DHT22;3471;49.678;8.388;2023-02-15T08:39:19;4.20;99.90
6865;DHT22;3471;49.678;8.388;2023-02-15T08:41:46;4.20;99.90
6865;DHT22;3471;49.678;8.388;2023-02-15T08:44:12;4.30;99.90
6865;DHT22;3471;49.678;8.388;2023-02-15T08:46:39;4.30;99.90
6865;DHT22;3471;49.678;8.388;2023-02-15T08:49:05;4.30;99.90
6865;DHT22;3471;49.678;8.388;2023-02-15T08:51:37;4.30;99.90
6865;DHT22;3471;49.678;8.388;2023-02-15T08:54:07;4.30;99.90
6865;DHT22;3471;49.678;8.388;2023-02-15T08:56:36;4.30;99.90
6865;DHT22;3471;49.678;8.388;2023-02-15T08:59:03;4.30;99.90
6865;DHT22;3471;49.678;8.388;2023-02-15T09:01:31;4.30;99.90
6865;DHT22;3471;49.678;8.388;2023-02-15T09:03:59;4.30;99.90
6865;DHT22;3471;49.678;8.388;2023-02-15T09:06:25;4.40;99.90
6865;DHT22;3471;49.678;8.388;2023-02-15T09:08:52;4.40;99.90
6865;DHT22;3471;49.678;8.388;2023-02-15T09:11:21;4.40;99.90
6865;DHT22;3471;49.678;8.388;2023-02-15T09:13:53;4.40;99.90
6865;DHT22;3471;49.678;8.388;2023-02-15T09:16:20;4.30;99.90
6865;DHT22;3471;49.678;8.388;2023-02-15T09:18:46;4.30;99.90
6865;DHT22;3471;49.678;8.388;2023-02-15T09:21:14;4.30;99.90
6865;DHT22;3471;49.678;8.388;2023-02-15T09:23:41;4.20;99.90
6865;DHT22;3471;49.678;8.388;2023-02-15T09:26:10;4.10;99.90
6865;DHT22;3471;49.678;8.388;2023-02-15T09:28:36;4.10;99.90
6865;DHT22;3471;49.678;8.388;2023-02-15T09:31:13;4.10;99.90
6865;DHT22;3471;49.678;8.388;2023-02-15T09:33:40;4.10;99.90
6865;DHT22;3471;49.678;8.388;2023-02-15T09:36:20;4.10;99.90
6865;DHT22;3471;49.678;8.388;2023-02-15T09:38:48;4.00;99.90
6865;DHT22;3471;49.678;8.388;2023-02-15T09:52:38;3.90;99.90
6865;DHT22;3471;49.678;8.388;2023-02-15T09:58:15;4.00;99.90
6865;DHT22;3471;49.678;8.388;2023-02-15T10:01:01;4.00;99.90
6865;DHT22;3471;49.678;8.388;2023-02-15T10:08:59;4.00;99.90
6865;DHT22;3471;49.678;8.388;2023-02-15T10:25:41;3.90;99.90
6865;DHT22;3471;49.678;8.388;2023-02-15T10:28:29;3.90;99.90
6865;DHT22;3471;49.678;8.388;2023-02-15T10:31:11;3.90;99.90
6865;DHT22;3471;49.678;8.388;2023-02-15T10:33:40;3.90;99.90
6865;DHT22;3471;49.678;8.388;2023-02-15T10:39:23;3.90;99.90
6865;DHT22;3471;49.678;8.388;2023-02-15T10:50:16;4.20;99.90
6865;DHT22;3471;49.678;8.388;2023-02-15T10:53:06;4.20;99.90
6865;DHT22;3471;49.678;8.388;2023-02-15T11:06:53;4.40;99.90
6865;DHT22;3471;49.678;8.388;2023-02-15T11:09:21;4.40;99.90
6865;DHT22;3471;49.678;8.388;2023-02-15T11:11:57;4.40;99.90
6865;DHT22;3471;49.678;8.388;2023-02-15T11:14:52;4.50;99.90
6865;DHT22;3471;49.678;8.388;2023-02-15T11:17:30;4.50;99.90
6865;DHT22;3471;49.678;8.388;2023-02-15T11:22:42;4.50;99.90
6865;DHT22;3471;49.678;8.388;2023-02-15T11:25:21;4.50;99.90
6865;DHT22;3471;49.678;8.388;2023-02-15T11:27:48;4.60;99.90
6865;DHT22;3471;49.678;8.388;2023-02-15T11:30:19;4.60;99.90
6865;DHT22;3471;49.678;8.388;2023-02-15T11:32:49;4.70;99.90
6865;DHT22;3471;49.678;8.388;2023-02-15T11:35:32;4.80;99.90
6865;DHT22;3471;49.678;8.388;2023-02-15T11:38:06;4.80;99.90
6865;DHT22;3471;49.678;8.388;2023-02-15T11:40:41;4.90;99.90
6865;DHT22;3471;49.678;8.388;2023-02-15T11:43:17;4.80;99.90
6865;DHT22;3471;49.678;8.388;2023-02-15T11:45:46;4.80;99.90
6865;DHT22;3471;49.678;8.388;2023-02-15T11:48:13;4.70;99.90
6865;DHT22;3471;49.678;8.388;2023-02-15T11:50:40;4.70;99.90
6865;DHT22;3471;49.678;8.388;2023-02-15T11:53:14;4.70;99.90
6865;DHT22;3471;49.678;8.388;2023-02-15T11:55:46;4.80;99.90
6865;DHT22;3471;49.678;8.388;2023-02-15T12:00:46;4.80;99.90
6865;DHT22;3471;49.678;8.388;2023-02-15T12:03:17;4.80;99.90
6865;DHT22;3471;49.678;8.388;2023-02-15T12:05:45;4.80;99.90
6865;DHT22;3471;49.678;8.388;2023-02-15T12:08:19;4.80;99.90
6865;DHT22;3471;49.678;8.388;2023-02-15T12:11:07;4.80;99.90
6865;DHT22;3471;49.678;8.388;2023-02-15T12:14:00;4.80;99.90
6865;DHT22;3471;49.678;8.388;2023-02-15T12:16:27;4.80;99.90
6865;DHT22;3471;49.678;8.388;2023-02-15T12:18:59;4.80;99.90
6865;DHT22;3471;49.678;8.388;2023-02-15T12:21:28;4.80;99.90
6865;DHT22;3471;49.678;8.388;2023-02-15T12:23:57;4.80;99.90
6865;DHT22;3471;49.678;8.388;2023-02-15T12:26:31;4.80;99.90
6865;DHT22;3471;49.678;8.388;2023-02-15T12:29:16;4.80;99.90
6865;DHT22;3471;49.678;8.388;2023-02-15T12:31:45;4.90;99.90
6865;DHT22;3471;49.678;8.388;2023-02-15T12:36:52;4.90;99.90
6865;DHT22;3471;49.678;8.388;2023-02-15T12:39:28;5.00;99.90
6865;DHT22;3471;49.678;8.388;2023-02-15T12:44:25;5.00;99.90
6865;DHT22;3471;49.678;8.388;2023-02-15T12:47:02;5.00;99.90
6865;DHT22;3471;49.678;8.388;2023-02-15T12:49:33;5.00;99.90
6865;DHT22;3471;49.678;8.388;2023-02-15T12:54:49;5.00;99.90
6865;DHT22;3471;49.678;8.388;2023-02-15T12:59:52;5.00;99.90
6865;DHT22;3471;49.678;8.388;2023-02-15T13:02:44;5.00;99.90
6865;DHT22;3471;49.678;8.388;2023-02-15T13:05:43;5.00;99.90
6865;DHT22;3471;49.678;8.388;2023-02-15T13:08:16;5.10;99.90
6865;DHT22;3471;49.678;8.388;2023-02-15T13:10:57;5.10;99.90
6865;DHT22;3471;49.678;8.388;2023-02-15T13:13:27;5.00;99.90
6865;DHT22;3471;49.678;8.388;2023-02-15T13:16:10;5.10;99.90
6865;DHT22;3471;49.678;8.388;2023-02-15T13:18:44;5.10;99.90
6865;DHT22;3471;49.678;8.388;2023-02-15T13:21:14;5.10;99.90
6865;DHT22;3471;49.678;8.388;2023-02-15T13:24:02;5.10;99.90
6865;DHT22;3471;49.678;8.388;2023-02-15T13:26:32;5.10;99.90
6865;DHT22;3471;49.678;8.388;2023-02-15T13:29:17;5.10;99.90
6865;DHT22;3471;49.678;8.388;2023-02-15T13:31:44;5.10;99.90
6865;DHT22;3471;49.678;8.388;2023-02-15T13:42:38;5.10;99.90
6865;DHT22;3471;49.678;8.388;2023-02-15T14:00:05;5.20;99.90
6865;DHT22;3471;49.678;8.388;2023-02-15T14:05:43;5.20;99.90
6865;DHT22;3471;49.678;8.388;2023-02-15T14:11:03;5.20;99.90
6865;DHT22;3471;49.678;8.388;2023-02-15T14:16:54;5.20;99.90
6865;DHT22;3471;49.678;8.388;2023-02-15T14:19:38;5.20;99.90
6865;DHT22;3471;49.678;8.388;2023-02-15T14:22:26;5.20;99.90
6865;DHT22;3471;49.678;8.388;2023-02-15T14:30:03;5.20;99.90
6865;DHT22;3471;49.678;8.388;2023-02-15T14:32:37;5.20;99.90
6865;DHT22;3471;49.678;8.388;2023-02-15T14:35:08;5.20;99.90
6865;DHT22;3471;49.678;8.388;2023-02-15T14:37:45;5.20;99.90
6865;DHT22;3471;49.678;8.388;2023-02-15T14:40:32;5.20;99.90
6865;DHT22;3471;49.678;8.388;2023-02-15T14:48:53;5.30;99.90
6865;DHT22;3471;49.678;8.388;2023-02-15T14:56:47;5.30;99.90
6865;DHT22;3471;49.678;8.388;2023-02-15T15:07:46;5.10;99.90
6865;DHT22;3471;49.678;8.388;2023-02-15T15:15:12;5.00;99.90
6865;DHT22;3471;49.678;8.388;2023-02-15T15:20:36;5.00;99.90
6865;DHT22;3471;49.678;8.388;2023-02-15T15:34:04;4.90;99.90
6865;DHT22;3471;49.678;8.388;2023-02-15T15:41:57;4.90;99.90
6865;DHT22;3471;49.678;8.388;2023-02-15T15:50:39;4.80;99.90
6865;DHT22;3471;49.678;8.388;2023-02-15T15:53:06;4.90;99.90
6865;DHT22;3471;49.678;8.388;2023-02-15T15:55:41;4.80;99.90
6865;DHT22;3471;49.678;8.388;2023-02-15T15:58:08;4.80;99.90
6865;DHT22;3471;49.678;8.388;2023-02-15T16:00:48;4.90;99.90
6865;DHT22;3471;49.678;8.388;2023-02-15T16:03:26;4.90;99.90
6865;DHT22;3471;49.678;8.388;2023-02-15T16:05:52;4.80;99.90
6865;DHT22;3471;49.678;8.388;2023-02-15T16:08:33;4.90;99.90
6865;DHT22;3471;49.678;8.388;2023-02-15T16:11:10;4.90;99.90
6865;DHT22;3471;49.678;8.388;2023-02-15T16:13:36;4.90;99.90
6865;DHT22;3471;49.678;8.388;2023-02-15T16:16:02;4.90;99.90
6865;DHT22;3471;49.678;8.388;2023-02-15T16:18:27;4.90;99.90
6865;DHT22;3471;49.678;8.388;2023-02-15T16:21:01;4.90;99.90
6865;DHT22;3471;49.678;8.388;2023-02-15T16:26:17;4.90;99.90
6865;DHT22;3471;49.678;8.388;2023-02-15T16:28:50;4.90;99.90
6865;DHT22;3471;49.678;8.388;2023-02-15T16:31:20;4.90;99.90
6865;DHT22;3471;49.678;8.388;2023-02-15T16:33:53;4.90;99.90
6865;DHT22;3471;49.678;8.388;2023-02-15T16:36:28;4.90;99.90
6865;DHT22;3471;49.678;8.388;2023-02-15T16:41:28;4.80;99.90
6865;DHT22;3471;49.678;8.388;2023-02-15T16:43:57;4.80;99.90
6865;DHT22;3471;49.678;8.388;2023-02-15T16:46:30;4.70;99.90
6865;DHT22;3471;49.678;8.388;2023-02-15T16:49:02;4.70;99.90
6865;DHT22;3471;49.678;8.388;2023-02-15T16:51:31;4.70;99.90
6865;DHT22;3471;49.678;8.388;2023-02-15T16:54:05;4.70;99.90
6865;DHT22;3471;49.678;8.388;2023-02-15T16:56:32;4.70;99.90
6865;DHT22;3471;49.678;8.388;2023-02-15T16:58:59;4.70;99.90
6865;DHT22;3471;49.678;8.388;2023-02-15T17:01:30;4.70;99.90
6865;DHT22;3471;49.678;8.388;2023-02-15T17:04:27;4.70;99.90
6865;DHT22;3471;49.678;8.388;2023-02-15T17:07:06;4.70;99.90
6865;DHT22;3471;49.678;8.388;2023-02-15T17:09:32;4.70;99.90
6865;DHT22;3471;49.678;8.388;2023-02-15T17:11:59;4.70;99.90
6865;DHT22;3471;49.678;8.388;2023-02-15T17:14:29;4.70;99.90
6865;DHT22;3471;49.678;8.388;2023-02-15T17:17:06;4.70;99.90
6865;DHT22;3471;49.678;8.388;2023-02-15T17:19:44;4.70;99.90
6865;DHT22;3471;49.678;8.388;2023-02-15T17:22:22;4.70;99.90
6865;DHT22;3471;49.678;8.388;2023-02-15T17:24:50;4.70;99.90
6865;DHT22;3471;49.678;8.388;2023-02-15T17:27:25;4.70;99.90
6865;DHT22;3471;49.678;8.388;2023-02-15T17:29:56;4.60;99.90
6865;DHT22;3471;49.678;8.388;2023-02-15T17:32:25;4.60;99.90
6865;DHT22;3471;49.678;8.388;2023-02-15T17:39:57;4.50;99.90
6865;DHT22;3471;49.678;8.388;2023-02-15T17:42:23;4.50;99.90
6865;DHT22;3471;49.678;8.388;2023-02-15T17:44:49;4.50;99.90
6865;DHT22;3471;49.678;8.388;2023-02-15T17:47:18;4.60;99.90
6865;DHT22;3471;49.678;8.388;2023-02-15T17:49:45;4.60;99.90
6865;DHT22;3471;49.678;8.388;2023-02-15T17:52:14;4.60;99.90
6865;DHT22;3471;49.678;8.388;2023-02-15T17:54:41;4.60;99.90
6865;DHT22;3471;49.678;8.388;2023-02-15T17:57:26;4.60;99.90
6865;DHT22;3471;49.678;8.388;2023-02-15T17:59:53;4.70;99.90
6865;DHT22;3471;49.678;8.388;2023-02-15T18:02:37;4.70;99.90
6865;DHT22;3471;49.678;8.388;2023-02-15T18:05:21;4.70;99.90
6865;DHT22;3471;49.678;8.388;2023-02-15T18:08:17;4.70;99.90
6865;DHT22;3471;49.678;8.388;2023-02-15T18:11:03;4.60;99.90
6865;DHT22;3471;49.678;8.388;2023-02-15T18:13:47;4.60;99.90
6865;DHT22;3471;49.678;8.388;2023-02-15T18:16:16;4.60;99.90
6865;DHT22;3471;49.678;8.388;2023-02-15T18:18:43;4.70;99.90
6865;DHT22;3471;49.678;8.388;2023-02-15T18:21:10;4.70;99.90
6865;DHT22;3471;49.678;8.388;2023-02-15T18:23:37;4.70;99.90
6865;DHT22;3471;49.678;8.388;2023-02-15T18:26:02;4.70;99.90
6865;DHT22;3471;49.678;8.388;2023-02-15T18:28:28;4.60;99.90
6865;DHT22;3471;49.678;8.388;2023-02-15T18:30:54;4.60;99.90
6865;DHT22;3471;49.678;8.388;2023-02-15T18:33:35;4.50;99.90
6865;DHT22;3471;49.678;8.388;2023-02-15T18:36:03;4.50;99.90
6865;DHT22;3471;49.678;8.388;2023-02-15T18:38:29;4.50;99.90
6865;DHT22;3471;49.678;8.388;2023-02-15T18:40:55;4.40;99.90
6865;DHT22;3471;49.678;8.388;2023-02-15T18:43:20;4.40;99.90
6865;DHT22;3471;49.678;8.388;2023-02-15T18:45:46;4.40;99.90
6865;DHT22;3471;49.678;8.388;2023-02-15T18:48:11;4.40;99.90
6865;DHT22;3471;49.678;8.388;2023-02-15T18:50:38;4.40;99.90
6865;DHT22;3471;49.678;8.388;2023-02-15T18:53:06;4.30;99.90
6865;DHT22;3471;49.678;8.388;2023-02-15T18:55:35;4.30;99.90
6865;DHT22;3471;49.678;8.388;2023-02-15T18:58:01;4.30;99.90
6865;DHT22;3471;49.678;8.388;2023-02-15T19:00:29;4.30;99.90
6865;DHT22;3471;49.678;8.388;2023-02-15T19:02:59;4.30;99.90
6865;DHT22;3471;49.678;8.388;2023-02-15T19:05:27;4.30;99.90
6865;DHT22;3471;49.678;8.388;2023-02-15T19:07:54;4.30;99.90
6865;DHT22;3471;49.678;8.388;2023-02-15T19:10:25;4.30;99.90
6865;DHT22;3471;49.678;8.388;2023-02-15T19:12:52;4.30;99.90
6865;DHT22;3471;49.678;8.388;2023-02-15T19:15:23;4.30;99.90
6865;DHT22;3471;49.678;8.388;2023-02-15T19:17:50;4.30;99.90
6865;DHT22;3471;49.678;8.388;2023-02-15T19:20:22;4.30;99.90
6865;DHT22;3471;49.678;8.388;2023-02-15T19:22:49;4.30;99.90
6865;DHT22;3471;49.678;8.388;2023-02-15T19:25:20;4.30;99.90
6865;DHT22;3471;49.678;8.388;2023-02-15T19:27:46;4.30;99.90
6865;DHT22;3471;49.678;8.388;2023-02-15T19:30:25;4.30;99.90
6865;DHT22;3471;49.678;8.388;2023-02-15T19:32:53;4.20;99.90
6865;DHT22;3471;49.678;8.388;2023-02-15T19:35:21;4.20;99.90
6865;DHT22;3471;49.678;8.388;2023-02-15T19:37:49;4.20;99.90
6865;DHT22;3471;49.678;8.388;2023-02-15T19:40:27;4.20;99.90
6865;DHT22;3471;49.678;8.388;2023-02-15T19:42:54;4.20;99.90
6865;DHT22;3471;49.678;8.388;2023-02-15T19:45:22;4.20;99.90
6865;DHT22;3471;49.678;8.388;2023-02-15T19:47:49;4.30;99.90
6865;DHT22;3471;49.678;8.388;2023-02-15T19:50:29;4.20;99.90
6865;DHT22;3471;49.678;8.388;2023-02-15T19:52:55;4.30;99.90
6865;DHT22;3471;49.678;8.388;2023-02-15T19:55:27;4.30;99.90
6865;DHT22;3471;49.678;8.388;2023-02-15T19:57:54;4.30;99.90
6865;DHT22;3471;49.678;8.388;2023-02-15T20:00:26;4.20;99.90